Albanel, Canada
Current Conditions -  °F | °C
As of 8:00 PM on Friday 21 Nov 2014 (Local Time) from CYRJ Reporting Station
Broken Clouds Broken Clouds  
Wind Chill: -3°   Ceiling: 3000
Heat Index: 10°   Visibility: 20mi
Dew Point:   Wind: 10mph
Humidity: 67%   Direction: 260°W
Pressure: 30.16"   Gusts: NA
Location:  48.87°N, 72.42°W
Report Text: CYRJ 220100Z 26009KT 20SM BKN030 M12/M17 A3016 RMK SC7 SLP229
Loading
Personal Weather Stations






























Interactive Weather Map New forecast layout! Learn more

10-Day Weather Forecast

Advertisements
Track Severe Weather on mobile